Time;durP1;ratioP1;P1;durP2;ratioP2;P2;SDS_P1;SDS_P2;PMS_P1;PMS_P2;Temp;Humidity;BMP_temperature;BMP_pressure;BME280_temperature;BME280_humidity;BME280_pressure;Samples;Min_cycle;Max_cycle;Signal;HPM_P1;HPM_P2
2023/09/05 05:17:08;;;;;;;;;;;;;;;;;;5007445;28;20384;-40
2023/09/05 05:19:35;;;;;;;;;;;;;;;;;;5007342;28;19964;-40
2023/09/05 05:22:01;;;;;;;;;;;;;;;;;;5024039;28;19963;-41
2023/09/05 05:24:26;;;;;;;;;;;;;;;;;;5029798;28;19949;-41
2023/09/05 05:26:52;;;;;;;;;;;;;;;;;;5030219;28;20311;-41
2023/09/05 05:29:18;;;;;;;;;;;;;;;;;;5026543;28;20011;-41
2023/09/05 05:31:44;;;;;;;;;;;;;;;;;;5020506;28;19968;-41
2023/09/05 05:34:10;;;;;;;;;;;;;;;;;;5030546;28;19920;-40
2023/09/05 05:36:36;;;;;;;;;;;;;;;;;;5030581;28;19913;-41
2023/09/05 05:39:02;;;;;;;;;;;;;;;;;;5024926;28;19922;-40
2023/09/05 05:41:28;;;;;;;;;;;;;;;;;;5011076;28;19952;-40
2023/09/05 05:43:54;;;;;;;;;;;;;;;;;;5009056;28;20337;-41
2023/09/05 05:46:20;;;;;;;;;;;;;;;;;;5008653;28;19917;-41
2023/09/05 05:48:46;;;;;;;;;;;;;;;;;;5009810;28;20366;-40
2023/09/05 05:51:11;;;;;;;;;;;;;;;;;;5009711;28;19914;-40
2023/09/05 05:53:37;;;;;;;;;;;;;;;;;;5010878;28;19910;-40
2023/09/05 05:56:03;;;;;;;;;;;;;;;;;;5006147;28;19948;-41
2023/09/05 05:58:29;;;;;;;;;;;;;;;;;;5009286;28;19975;-40
2023/09/05 06:00:55;;;;;;;;;;;;;;;;;;5002788;28;20095;-41
2023/09/05 06:03:21;;;;;;;;;;;;;;;;;;5007624;28;19920;-40
2023/09/05 06:05:47;;;;;;;;;;;;;;;;;;5009410;28;20360;-40
2023/09/05 06:08:13;;;;;;;;;;;;;;;;;;5004860;28;20384;-40
2023/09/05 06:10:39;;;;;;;;;;;;;;;;;;5011925;28;19920;-41
2023/09/05 06:13:04;;;;;;;;;;;;;;;;;;5009125;28;20013;-40
2023/09/05 06:15:30;;;;;;;;;;;;;;;;;;5018103;28;19913;-40
2023/09/05 06:17:56;;;;;;;;;;;;;;;;;;5011333;28;19918;-41
2023/09/05 06:20:22;;;;;;;;;;;;;;;;;;5009660;28;19913;-41
2023/09/05 06:22:49;;;;;;;;;;;;;;;;;;5010309;28;19910;-41
2023/09/05 06:25:15;;;;;;;;;;;;;;;;;;5010891;28;19913;-41
2023/09/05 06:27:43;;;;;;;;;;;;;;;;;;5010966;28;19932;-40
2023/09/05 06:30:09;;;;;;;;;;;;;;;;;;5004498;28;19949;-41
2023/09/05 06:32:34;;;;;;;;;;;;;;;;;;4991632;28;20593;-41
2023/09/05 06:35:00;;;;;;;;;;;;;;;;;;4991582;28;19912;-41
2023/09/05 06:37:29;;;;;;;;;;;;;;;;;;5010573;28;19910;-40
2023/09/05 06:39:54;;;;;;;;;;;;;;;;;;5013019;28;19914;-40
2023/09/05 06:42:21;;;;;;;;;;;;;;;;;;5014485;28;19910;-40
2023/09/05 06:44:47;;;;;;;;;;;;;;;;;;5014586;28;19910;-40
2023/09/05 06:47:13;;;;;;;;;;;;;;;;;;5011622;28;20328;-40
2023/09/05 06:49:39;;;;;;;;;;;;;;;;;;5014356;28;19918;-40
2023/09/05 06:52:05;;;;;;;;;;;;;;;;;;5013955;28;19916;-40
2023/09/05 06:54:31;;;;;;;;;;;;;;;;;;5014222;28;19917;-40
2023/09/05 06:56:57;;;;;;;;;;;;;;;;;;5013799;28;19959;-40
2023/09/05 06:59:22;;;;;;;;;;;;;;;;;;5013868;28;20358;-40
2023/09/05 07:01:48;;;;;;;;;;;;;;;;;;5014137;28;19910;-40
2023/09/05 07:04:14;;;;;;;;;;;;;;;;;;5011019;28;19914;-40
2023/09/05 07:06:40;;;;;;;;;;;;;;;;;;5014389;28;19909;-40
2023/09/05 07:09:06;;;;;;;;;;;;;;;;;;5014021;28;20431;-40
2023/09/05 07:11:32;;;;;;;;;;;;;;;;;;5013849;28;19909;-40
2023/09/05 07:13:58;;;;;;;;;;;;;;;;;;5013636;28;19910;-40
2023/09/05 07:16:24;;;;;;;;;;;;;;;;;;5013833;28;20407;-40
2023/09/05 07:18:50;;;;;;;;;;;;;;;;;;5013219;28;19921;-40
2023/09/05 07:21:16;;;;;;;;;;;;;;;;;;5005075;28;20343;-40
2023/09/05 07:23:41;;;;;;;;;;;;;;;;;;5014162;28;19917;-40
2023/09/05 07:26:07;;;;;;;;;;;;;;;;;;5013801;28;19936;-40
2023/09/05 07:28:33;;;;;;;;;;;;;;;;;;5011356;28;20380;-40
2023/09/05 07:30:59;;;;;;;;;;;;;;;;;;4994718;28;19949;-40
2023/09/05 07:33:25;;;;;;;;;;;;;;;;;;5008760;28;19910;-40
2023/09/05 07:35:51;;;;;;;;;;;;;;;;;;5005037;28;19921;-40
2023/09/05 07:38:20;;;;;;;;;;;;;;;;;;5011591;28;19913;-40
2023/09/05 07:40:47;;;;;;;;;;;;;;;;;;5009895;28;19913;-40
2023/09/05 07:43:13;;;;;;;;;;;;;;;;;;5011723;28;19964;-40
2023/09/05 07:45:39;;;;;;;;;;;;;;;;;;5009907;28;20018;-40
2023/09/05 07:48:07;;;;;;;;;;;;;;;;;;5020745;28;19914;-40
2023/09/05 07:50:33;;;;;;;;;;;;;;;;;;5011591;28;19913;-40
2023/09/05 07:52:59;;;;;;;;;;;;;;;;;;5012099;28;20335;-41
2023/09/05 07:55:24;;;;;;;;;;;;;;;;;;5003854;28;19917;-40
2023/09/05 07:57:51;;;;;;;;;;;;;;;;;;4992798;28;19996;-42
2023/09/05 08:00:17;;;;;;;;;;;;;;;;;;4975249;28;19961;-41
2023/09/05 08:02:43;;;;;;;;;;;;;;;;;;4992812;28;20375;-41
2023/09/05 08:05:09;;;;;;;;;;;;;;;;;;4993078;28;19937;-41
2023/09/05 08:07:35;;;;;;;;;;;;;;;;;;5009912;28;19953;-42
2023/09/05 08:10:01;;;;;;;;;;;;;;;;;;5011653;28;20396;-42
2023/09/05 08:12:27;;;;;;;;;;;;;;;;;;5012036;28;19910;-41
2023/09/05 08:14:52;;;;;;;;;;;;;;;;;;5012062;28;19909;-41
2023/09/05 08:17:18;;;;;;;;;;;;;;;;;;5011818;28;19992;-41
2023/09/05 08:19:44;;;;;;;;;;;;;;;;;;5012049;28;19913;-41
2023/09/05 08:22:12;;;;;;;;;;;;;;;;;;5012201;28;19959;-42
2023/09/05 08:24:38;;;;;;;;;;;;;;;;;;5012250;28;19917;-40
2023/09/05 08:27:05;;;;;;;;;;;;;;;;;;5009227;28;19917;-42
2023/09/05 08:29:31;;;;;;;;;;;;;;;;;;5009673;28;19922;-41
2023/09/05 08:31:58;;;;;;;;;;;;;;;;;;5005475;28;20514;-42
2023/09/05 08:34:24;;;;;;;;;;;;;;;;;;5011892;28;20285;-41
2023/09/05 08:36:50;;;;;;;;;;;;;;;;;;5009952;28;19918;-42
2023/09/05 08:39:15;;;;;;;;;;;;;;;;;;5008540;28;19913;-42
2023/09/05 08:41:41;;;;;;;;;;;;;;;;;;5011309;28;19910;-44
2023/09/05 08:44:08;;;;;;;;;;;;;;;;;;5012230;28;19909;-42
2023/09/05 08:46:34;;;;;;;;;;;;;;;;;;5011511;28;19915;-42
2023/09/05 08:49:00;;;;;;;;;;;;;;;;;;5011756;28;19913;-42
2023/09/05 08:51:26;;;;;;;;;;;;;;;;;;5011559;28;19909;-42
2023/09/05 08:53:52;;;;;;;;;;;;;;;;;;5011480;28;19909;-42
2023/09/05 08:56:18;;;;;;;;;;;;;;;;;;5011283;28;19932;-42
2023/09/05 08:58:44;;;;;;;;;;;;;;;;;;5011462;28;19936;-43
2023/09/05 09:01:10;;;;;;;;;;;;;;;;;;5011746;28;19909;-42
2023/09/05 09:03:36;;;;;;;;;;;;;;;;;;5011294;28;20376;-42
2023/09/05 09:06:02;;;;;;;;;;;;;;;;;;5011339;28;19913;-43
2023/09/05 09:08:27;;;;;;;;;;;;;;;;;;5011097;28;19913;-42
2023/09/05 09:10:53;;;;;;;;;;;;;;;;;;5011330;28;20292;-42
2023/09/05 09:13:19;;;;;;;;;;;;;;;;;;5010982;28;19937;-43
2023/09/05 09:15:46;;;;;;;;;;;;;;;;;;5010989;28;19976;-42
2023/09/05 09:18:12;;;;;;;;;;;;;;;;;;5011144;28;19921;-43
2023/09/05 09:20:38;;;;;;;;;;;;;;;;;;5011541;28;19932;-42
2023/09/05 09:23:04;;;;;;;;;;;;;;;;;;5010873;28;19910;-42
2023/09/05 09:25:30;;;;;;;;;;;;;;;;;;5010932;28;19909;-42
2023/09/05 09:27:59;;;;;;;;;;;;;;;;;;5010979;28;19909;-43
2023/09/05 09:30:25;;;;;;;;;;;;;;;;;;5010962;28;19914;-42
2023/09/05 09:32:51;;;;;;;;;;;;;;;;;;5010934;28;19945;-43
2023/09/05 09:35:17;;;;;;;;;;;;;;;;;;5010992;28;19952;-42
2023/09/05 09:37:43;;;;;;;;;;;;;;;;;;5010614;28;19914;-42
2023/09/05 09:40:09;;;;;;;;;;;;;;;;;;5011242;28;20261;-42
2023/09/05 09:42:36;;;;;;;;;;;;;;;;;;5010778;28;19909;-43
2023/09/05 09:45:04;;;;;;;;;;;;;;;;;;5010891;28;19913;-42
2023/09/05 09:47:30;;;;;;;;;;;;;;;;;;5010699;28;20295;-42
2023/09/05 09:49:56;;;;;;;;;;;;;;;;;;5010878;28;19921;-43
2023/09/05 09:52:22;;;;;;;;;;;;;;;;;;5010419;28;19909;-42
2023/09/05 09:54:50;;;;;;;;;;;;;;;;;;5010915;28;20051;-42
2023/09/05 09:57:16;;;;;;;;;;;;;;;;;;5010632;28;19936;-43
2023/09/05 09:59:43;;;;;;;;;;;;;;;;;;5010817;28;19913;-42
2023/09/05 10:02:09;;;;;;;;;;;;;;;;;;5011071;28;19915;-43
2023/09/05 10:04:35;;;;;;;;;;;;;;;;;;5010553;28;19992;-42
2023/09/05 10:07:01;;;;;;;;;;;;;;;;;;5010451;28;20015;-43
2023/09/05 10:09:30;;;;;;;;;;;;;;;;;;5010518;28;19965;-43
2023/09/05 10:11:56;;;;;;;;;;;;;;;;;;5013108;28;19910;-43
2023/09/05 10:14:21;;;;;;;;;;;;;;;;;;5014409;28;19909;-43
2023/09/05 10:16:47;;;;;;;;;;;;;;;;;;5014379;28;20626;-43
2023/09/05 10:19:15;;;;;;;;;;;;;;;;;;5013085;28;20005;-42
2023/09/05 10:21:41;;;;;;;;;;;;;;;;;;5014442;28;19910;-44
2023/09/05 10:24:07;;;;;;;;;;;;;;;;;;5014437;28;19932;-43
2023/09/05 10:26:33;;;;;;;;;;;;;;;;;;5014261;28;19960;-43
2023/09/05 10:28:59;;;;;;;;;;;;;;;;;;5014093;28;20396;-42
2023/09/05 10:31:25;;;;;;;;;;;;;;;;;;5014215;28;20466;-42
2023/09/05 10:33:51;;;;;;;;;;;;;;;;;;5013839;28;19914;-43
2023/09/05 10:36:17;;;;;;;;;;;;;;;;;;5014155;28;19996;-42
2023/09/05 10:38:42;;;;;;;;;;;;;;;;;;5014030;28;19963;-43
2023/09/05 10:41:08;;;;;;;;;;;;;;;;;;5014419;28;19916;-42
2023/09/05 10:43:35;;;;;;;;;;;;;;;;;;5013841;28;19910;-44
2023/09/05 10:46:00;;;;;;;;;;;;;;;;;;5013906;28;19909;-43
2023/09/05 10:48:26;;;;;;;;;;;;;;;;;;5013522;28;19921;-43
2023/09/05 10:50:52;;;;;;;;;;;;;;;;;;5014021;28;19910;-44
2023/09/05 10:53:18;;;;;;;;;;;;;;;;;;5013759;28;19917;-43
2023/09/05 10:55:46;;;;;;;;;;;;;;;;;;5013857;28;19913;-44
2023/09/05 10:58:12;;;;;;;;;;;;;;;;;;5013649;28;19909;-43
2023/09/05 11:00:38;;;;;;;;;;;;;;;;;;5014064;28;20288;-43
2023/09/05 11:03:08;;;;;;;;;;;;;;;;;;5013297;28;19910;-42
2023/09/05 11:05:34;;;;;;;;;;;;;;;;;;5013493;28;19937;-43
2023/09/05 11:08:01;;;;;;;;;;;;;;;;;;5013622;28;19936;-42
2023/09/05 11:10:27;;;;;;;;;;;;;;;;;;5013507;28;19913;-43
2023/09/05 11:12:53;;;;;;;;;;;;;;;;;;5013386;28;19992;-42
2023/09/05 11:15:19;;;;;;;;;;;;;;;;;;5010991;28;20355;-43
2023/09/05 11:17:44;;;;;;;;;;;;;;;;;;5011614;28;19917;-44
2023/09/05 11:20:12;;;;;;;;;;;;;;;;;;5011051;28;19909;-43
2023/09/05 11:22:37;;;;;;;;;;;;;;;;;;5010376;28;20000;-43
2023/09/05 11:25:07;;;;;;;;;;;;;;;;;;5011351;28;20008;-43
2023/09/05 11:27:33;;;;;;;;;;;;;;;;;;5011508;28;19914;-43
2023/09/05 11:29:59;;;;;;;;;;;;;;;;;;5011177;28;19968;-43
2023/09/05 11:32:25;;;;;;;;;;;;;;;;;;5011330;28;19913;-43
2023/09/05 11:34:51;;;;;;;;;;;;;;;;;;5011163;28;19914;-43
2023/09/05 11:37:17;;;;;;;;;;;;;;;;;;5011985;28;20268;-44
2023/09/05 11:39:43;;;;;;;;;;;;;;;;;;5011328;28;19913;-43
2023/09/05 11:42:09;;;;;;;;;;;;;;;;;;5011201;28;19913;-44
2023/09/05 11:44:35;;;;;;;;;;;;;;;;;;5011156;28;19910;-43
2023/09/05 11:47:01;;;;;;;;;;;;;;;;;;5010902;28;19955;-43
2023/09/05 11:49:26;;;;;;;;;;;;;;;;;;5011149;28;19941;-43
2023/09/05 11:51:52;;;;;;;;;;;;;;;;;;5011148;28;19909;-43
2023/09/05 11:54:18;;;;;;;;;;;;;;;;;;5011426;28;19913;-44
2023/09/05 11:56:44;;;;;;;;;;;;;;;;;;5010881;28;19952;-43
2023/09/05 11:59:10;;;;;;;;;;;;;;;;;;5010714;28;20240;-45
2023/09/05 12:01:36;;;;;;;;;;;;;;;;;;5010679;28;19909;-43
2023/09/05 12:04:05;;;;;;;;;;;;;;;;;;5010938;28;20278;-44
2023/09/05 12:06:31;;;;;;;;;;;;;;;;;;5010773;28;20292;-44
2023/09/05 12:08:57;;;;;;;;;;;;;;;;;;5010664;28;19921;-43
2023/09/05 12:11:23;;;;;;;;;;;;;;;;;;5010904;28;20305;-43
2023/09/05 12:13:49;;;;;;;;;;;;;;;;;;5011359;28;19909;-44
2023/09/05 12:16:17;;;;;;;;;;;;;;;;;;5010466;28;19923;-43
2023/09/05 12:18:43;;;;;;;;;;;;;;;;;;5010330;28;19944;-44
2023/09/05 12:21:09;;;;;;;;;;;;;;;;;;5010478;28;19910;-44
2023/09/05 12:23:35;;;;;;;;;;;;;;;;;;5010522;28;19973;-44
2023/09/05 12:26:02;;;;;;;;;;;;;;;;;;5009557;28;19949;-44
2023/09/05 12:28:28;;;;;;;;;;;;;;;;;;5009758;28;19917;-45
2023/09/05 12:30:54;;;;;;;;;;;;;;;;;;5009937;28;19909;-47
2023/09/05 12:33:20;;;;;;;;;;;;;;;;;;5010844;28;19910;-44
2023/09/05 12:35:46;;;;;;;;;;;;;;;;;;5009947;28;19909;-44
2023/09/05 12:38:12;;;;;;;;;;;;;;;;;;5010169;28;19913;-43
2023/09/05 12:40:38;;;;;;;;;;;;;;;;;;5010144;28;19910;-44
2023/09/05 12:43:04;;;;;;;;;;;;;;;;;;5010220;28;20012;-44
2023/09/05 12:45:31;;;;;;;;;;;;;;;;;;5009969;28;19952;-43
2023/09/05 12:47:56;;;;;;;;;;;;;;;;;;5010111;28;19909;-45
2023/09/05 12:50:28;;;;;;;;;;;;;;;;;;5010551;28;19913;-44
2023/09/05 12:52:54;;;;;;;;;;;;;;;;;;5010009;28;19917;-43
2023/09/05 12:55:20;;;;;;;;;;;;;;;;;;5006337;28;19932;-47
2023/09/05 12:57:46;;;;;;;;;;;;;;;;;;5002778;28;20316;-46
2023/09/05 13:00:12;;;;;;;;;;;;;;;;;;5007596;28;19918;-44
2023/09/05 13:02:43;;;;;;;;;;;;;;;;;;5007494;28;19920;-44
2023/09/05 13:05:09;;;;;;;;;;;;;;;;;;5007163;28;19914;-44
2023/09/05 13:07:35;;;;;;;;;;;;;;;;;;5005289;28;19967;-43
2023/09/05 13:10:01;;;;;;;;;;;;;;;;;;5011844;28;20466;-44
2023/09/05 13:12:27;;;;;;;;;;;;;;;;;;5007048;28;19920;-44
2023/09/05 13:14:53;;;;;;;;;;;;;;;;;;5003930;28;20710;-44
2023/09/05 13:17:18;;;;;;;;;;;;;;;;;;5005880;28;19914;-45
2023/09/05 13:19:44;;;;;;;;;;;;;;;;;;5002736;28;20387;-44
2023/09/05 13:22:11;;;;;;;;;;;;;;;;;;5008165;28;20035;-44
2023/09/05 13:24:37;;;;;;;;;;;;;;;;;;5007874;28;19920;-44
2023/09/05 13:27:03;;;;;;;;;;;;;;;;;;5005511;28;20383;-43
2023/09/05 13:29:30;;;;;;;;;;;;;;;;;;5008119;28;19917;-44
2023/09/05 13:31:56;;;;;;;;;;;;;;;;;;5006848;28;19920;-44
2023/09/05 13:34:22;;;;;;;;;;;;;;;;;;5008188;28;20288;-42
2023/09/05 13:36:48;;;;;;;;;;;;;;;;;;5007835;28;19909;-43
2023/09/05 13:41:58;;;;;;;;;;;;;;;;;;5008463;28;19917;-43
2023/09/05 13:44:24;;;;;;;;;;;;;;;;;;5006562;28;19921;-43
2023/09/05 13:46:51;;;;;;;;;;;;;;;;;;5010771;28;19914;-44
2023/09/05 13:49:17;;;;;;;;;;;;;;;;;;5008646;28;20022;-45
2023/09/05 13:51:42;;;;;;;;;;;;;;;;;;5010060;28;20528;-43
2023/09/05 13:54:08;;;;;;;;;;;;;;;;;;5009750;28;20436;-43
2023/09/05 13:56:34;;;;;;;;;;;;;;;;;;5010786;28;19996;-43
2023/09/05 13:59:00;;;;;;;;;;;;;;;;;;5007889;28;19919;-43
2023/09/05 14:01:26;;;;;;;;;;;;;;;;;;4991841;28;20276;-43
2023/09/05 14:03:52;;;;;;;;;;;;;;;;;;5000771;28;19913;-44
2023/09/05 14:06:20;;;;;;;;;;;;;;;;;;5012889;28;20003;-43
2023/09/05 14:08:46;;;;;;;;;;;;;;;;;;5011266;28;19913;-43
2023/09/05 14:11:12;;;;;;;;;;;;;;;;;;5010194;28;20327;-43
2023/09/05 14:13:38;;;;;;;;;;;;;;;;;;5010970;28;19909;-44
2023/09/05 14:16:04;;;;;;;;;;;;;;;;;;5002135;28;19937;-43
2023/09/05 14:18:30;;;;;;;;;;;;;;;;;;5020783;28;20391;-43
2023/09/05 14:20:56;;;;;;;;;;;;;;;;;;5008738;28;19910;-43
2023/09/05 14:23:24;;;;;;;;;;;;;;;;;;5010425;28;20430;-42
2023/09/05 14:25:50;;;;;;;;;;;;;;;;;;5000691;28;19941;-43
2023/09/05 14:28:16;;;;;;;;;;;;;;;;;;5004974;28;19979;-43
2023/09/05 14:30:42;;;;;;;;;;;;;;;;;;5023619;28;19919;-44
2023/09/05 14:33:09;;;;;;;;;;;;;;;;;;5004139;28;19913;-44
2023/09/05 14:35:35;;;;;;;;;;;;;;;;;;5002223;28;19914;-43
2023/09/05 14:38:01;;;;;;;;;;;;;;;;;;5002868;28;19913;-43
2023/09/05 14:40:28;;;;;;;;;;;;;;;;;;5001216;28;19968;-43
2023/09/05 14:42:54;;;;;;;;;;;;;;;;;;5011189;28;19941;-44
2023/09/05 14:45:20;;;;;;;;;;;;;;;;;;5007706;28;19920;-44
2023/09/05 14:47:46;;;;;;;;;;;;;;;;;;5008210;28;20368;-43
2023/09/05 14:50:12;;;;;;;;;;;;;;;;;;5028529;28;20012;-43
2023/09/05 14:52:37;;;;;;;;;;;;;;;;;;5020172;28;19910;-43
2023/09/05 14:55:03;;;;;;;;;;;;;;;;;;5007880;28;19919;-44
2023/09/05 14:57:29;;;;;;;;;;;;;;;;;;5010539;28;19971;-43
2023/09/05 14:59:55;;;;;;;;;;;;;;;;;;5014027;28;19969;-44
2023/09/05 15:02:21;;;;;;;;;;;;;;;;;;5013280;28;19964;-48
2023/09/05 15:04:47;;;;;;;;;;;;;;;;;;5016912;28;19916;-44
2023/09/05 15:07:13;;;;;;;;;;;;;;;;;;5019550;28;20026;-45
2023/09/05 15:09:39;;;;;;;;;;;;;;;;;;5012824;28;19925;-44
2023/09/05 15:12:05;;;;;;;;;;;;;;;;;;5007072;28;20340;-44
2023/09/05 15:14:31;;;;;;;;;;;;;;;;;;5007567;28;19916;-44
2023/09/05 15:16:57;;;;;;;;;;;;;;;;;;5003527;28;19913;-43
2023/09/05 15:19:23;;;;;;;;;;;;;;;;;;4994741;28;19921;-44
2023/09/05 15:21:49;;;;;;;;;;;;;;;;;;5014055;28;19909;-45
2023/09/05 15:24:15;;;;;;;;;;;;;;;;;;5006155;28;20289;-44
2023/09/05 15:26:42;;;;;;;;;;;;;;;;;;4994214;28;19964;-45
2023/09/05 15:29:11;;;;;;;;;;;;;;;;;;4990507;28;19918;-44
2023/09/05 15:31:37;;;;;;;;;;;;;;;;;;4994285;28;19909;-43
2023/09/05 15:34:05;;;;;;;;;;;;;;;;;;4986840;28;19918;-44
2023/09/05 15:36:31;;;;;;;;;;;;;;;;;;4994221;28;19910;-43
2023/09/05 15:38:57;;;;;;;;;;;;;;;;;;4991076;28;19941;-44
2023/09/05 15:41:23;;;;;;;;;;;;;;;;;;4973564;28;19926;-43
2023/09/05 15:43:49;;;;;;;;;;;;;;;;;;4989991;28;19956;-43
2023/09/05 15:46:15;;;;;;;;;;;;;;;;;;4985000;28;19922;-43
2023/09/05 15:48:40;;;;;;;;;;;;;;;;;;4992289;28;19913;-44
2023/09/05 15:51:06;;;;;;;;;;;;;;;;;;4992594;28;19917;-44
2023/09/05 15:53:32;;;;;;;;;;;;;;;;;;4991887;28;19999;-43
2023/09/05 15:55:58;;;;;;;;;;;;;;;;;;4985438;28;20621;-44
2023/09/05 15:58:24;;;;;;;;;;;;;;;;;;4993690;28;19921;-43
2023/09/05 16:00:50;;;;;;;;;;;;;;;;;;4989164;28;20671;-44
2023/09/05 16:03:19;;;;;;;;;;;;;;;;;;4981799;28;19921;-43
2023/09/05 16:05:45;;;;;;;;;;;;;;;;;;4985604;28;19914;-44
2023/09/05 16:08:11;;;;;;;;;;;;;;;;;;4987217;28;20336;-43
2023/09/05 16:10:37;;;;;;;;;;;;;;;;;;4972499;28;19983;-43
2023/09/05 16:13:04;;;;;;;;;;;;;;;;;;4991176;28;19914;-44
2023/09/05 16:15:30;;;;;;;;;;;;;;;;;;4991347;28;19964;-44
2023/09/05 16:17:56;;;;;;;;;;;;;;;;;;4990458;28;19922;-44
2023/09/05 16:20:22;;;;;;;;;;;;;;;;;;5004784;28;19914;-42
2023/09/05 16:22:48;;;;;;;;;;;;;;;;;;5011009;28;20004;-43
2023/09/05 16:25:13;;;;;;;;;;;;;;;;;;5010940;28;19936;-44
2023/09/05 16:27:39;;;;;;;;;;;;;;;;;;5010477;28;19910;-44
2023/09/05 16:30:07;;;;;;;;;;;;;;;;;;5010037;28;20015;-43
2023/09/05 16:32:33;;;;;;;;;;;;;;;;;;5005735;28;20017;-44
2023/09/05 16:34:59;;;;;;;;;;;;;;;;;;5008182;28;19996;-44
2023/09/05 16:37:25;;;;;;;;;;;;;;;;;;5009305;28;19948;-44
2023/09/05 16:39:51;;;;;;;;;;;;;;;;;;5026933;28;19913;-44
2023/09/05 16:42:17;;;;;;;;;;;;;;;;;;5026406;28;20008;-43
2023/09/05 16:44:43;;;;;;;;;;;;;;;;;;5016757;28;19917;-43
2023/09/05 16:47:08;;;;;;;;;;;;;;;;;;5007098;28;19910;-44
2023/09/05 16:49:34;;;;;;;;;;;;;;;;;;5008545;28;19917;-45
2023/09/05 16:52:00;;;;;;;;;;;;;;;;;;5009101;28;19929;-44
2023/09/05 16:54:26;;;;;;;;;;;;;;;;;;4989437;28;20000;-44
2023/09/05 16:56:52;;;;;;;;;;;;;;;;;;5000959;28;19921;-44
2023/09/05 16:59:18;;;;;;;;;;;;;;;;;;5003163;28;19914;-44
2023/09/05 17:01:44;;;;;;;;;;;;;;;;;;5007238;28;19913;-44
2023/09/05 17:04:10;;;;;;;;;;;;;;;;;;5027299;28;19944;-45
2023/09/05 17:06:36;;;;;;;;;;;;;;;;;;5008244;28;20281;-44
2023/09/05 17:09:05;;;;;;;;;;;;;;;;;;5022128;28;19917;-44
2023/09/05 17:11:31;;;;;;;;;;;;;;;;;;5003590;28;19913;-44
2023/09/05 17:13:57;;;;;;;;;;;;;;;;;;5009300;28;20004;-44
2023/09/05 17:16:23;;;;;;;;;;;;;;;;;;4999527;28;19924;-44
2023/09/05 17:18:49;;;;;;;;;;;;;;;;;;4999685;28;19922;-45
2023/09/05 17:21:16;;;;;;;;;;;;;;;;;;4994188;28;19937;-46
2023/09/05 17:23:42;;;;;;;;;;;;;;;;;;5010448;28;19960;-44
2023/09/05 17:26:08;;;;;;;;;;;;;;;;;;5022361;28;20316;-48
2023/09/05 17:28:34;;;;;;;;;;;;;;;;;;5006191;28;20383;-46
2023/09/05 17:31:00;;;;;;;;;;;;;;;;;;4995794;28;20613;-44
2023/09/05 17:33:26;;;;;;;;;;;;;;;;;;5016642;28;20000;-46
2023/09/05 17:35:53;;;;;;;;;;;;;;;;;;5007823;28;19914;-44
2023/09/05 17:38:19;;;;;;;;;;;;;;;;;;5002676;28;20407;-46
2023/09/05 17:40:45;;;;;;;;;;;;;;;;;;5007784;28;19913;-44
2023/09/05 17:43:11;;;;;;;;;;;;;;;;;;5016344;28;20300;-44
2023/09/05 17:45:36;;;;;;;;;;;;;;;;;;5000747;28;19914;-46
2023/09/05 17:48:02;;;;;;;;;;;;;;;;;;5004691;28;19914;-43
2023/09/05 17:50:28;;;;;;;;;;;;;;;;;;5004982;28;19917;-44
2023/09/05 17:52:54;;;;;;;;;;;;;;;;;;5004794;28;19992;-47
2023/09/05 17:55:20;;;;;;;;;;;;;;;;;;5003202;28;19921;-44
2023/09/05 17:57:46;;;;;;;;;;;;;;;;;;4996822;28;20619;-43
2023/09/05 18:00:13;;;;;;;;;;;;;;;;;;4987919;28;19971;-44
2023/09/05 18:02:39;;;;;;;;;;;;;;;;;;5005960;28;19972;-44
2023/09/05 18:05:04;;;;;;;;;;;;;;;;;;5006849;28;19913;-43
2023/09/05 18:07:30;;;;;;;;;;;;;;;;;;4996514;28;19932;-43
2023/09/05 18:09:56;;;;;;;;;;;;;;;;;;4999899;28;20049;-44
2023/09/05 18:12:22;;;;;;;;;;;;;;;;;;4999686;28;20004;-43
2023/09/05 18:14:48;;;;;;;;;;;;;;;;;;5002607;28;20384;-44
2023/09/05 18:17:14;;;;;;;;;;;;;;;;;;4996428;28;19917;-43
2023/09/05 18:19:40;;;;;;;;;;;;;;;;;;5011868;28;19917;-43
2023/09/05 18:22:06;;;;;;;;;;;;;;;;;;4998510;28;19917;-43
2023/09/05 18:24:32;;;;;;;;;;;;;;;;;;5010196;28;19920;-44
2023/09/05 18:27:04;;;;;;;;;;;;;;;;;;4999073;28;20568;-43
2023/09/05 18:29:30;;;;;;;;;;;;;;;;;;4986834;28;20522;-43
2023/09/05 18:31:55;;;;;;;;;;;;;;;;;;5006637;28;20012;-43
2023/09/05 18:34:21;;;;;;;;;;;;;;;;;;5005344;28;20061;-43
2023/09/05 18:36:47;;;;;;;;;;;;;;;;;;5004669;28;20406;-43
2023/09/05 18:39:13;;;;;;;;;;;;;;;;;;5017795;28;19924;-44
2023/09/05 18:41:39;;;;;;;;;;;;;;;;;;5013159;28;19979;-42
2023/09/05 18:44:05;;;;;;;;;;;;;;;;;;5015927;28;20000;-43
2023/09/05 18:46:31;;;;;;;;;;;;;;;;;;5000630;28;20155;-42
2023/09/05 18:48:57;;;;;;;;;;;;;;;;;;4990088;28;19960;-44
2023/09/05 18:51:23;;;;;;;;;;;;;;;;;;5001177;28;19961;-42
2023/09/05 18:53:49;;;;;;;;;;;;;;;;;;4990145;28;19961;-43
2023/09/05 18:56:16;;;;;;;;;;;;;;;;;;5013927;28;19917;-43
2023/09/05 18:58:41;;;;;;;;;;;;;;;;;;5027911;28;20462;-43
2023/09/05 19:01:07;;;;;;;;;;;;;;;;;;5019595;28;19917;-43
2023/09/05 19:03:35;;;;;;;;;;;;;;;;;;5004626;28;20000;-43
2023/09/05 19:06:01;;;;;;;;;;;;;;;;;;5006052;28;19914;-43
2023/09/05 19:08:27;;;;;;;;;;;;;;;;;;5006444;28;20318;-49
2023/09/05 19:10:55;;;;;;;;;;;;;;;;;;5001495;28;19917;-42
2023/09/05 19:13:21;;;;;;;;;;;;;;;;;;5011339;28;19936;-43
2023/09/05 19:15:47;;;;;;;;;;;;;;;;;;5001706;28;20639;-43
2023/09/05 19:18:13;;;;;;;;;;;;;;;;;;4994797;28;19929;-44
2023/09/05 19:20:41;;;;;;;;;;;;;;;;;;5011208;28;20280;-42
2023/09/05 19:23:07;;;;;;;;;;;;;;;;;;5000886;28;19918;-43
2023/09/05 19:25:33;;;;;;;;;;;;;;;;;;5006986;28;19917;-43
2023/09/05 19:27:59;;;;;;;;;;;;;;;;;;5004626;28;19918;-43
2023/09/05 19:30:25;;;;;;;;;;;;;;;;;;5023748;28;20230;-42
2023/09/05 19:32:51;;;;;;;;;;;;;;;;;;5018296;28;19917;-44
2023/09/05 19:35:19;;;;;;;;;;;;;;;;;;4993199;28;19925;-43
2023/09/05 19:37:44;;;;;;;;;;;;;;;;;;5008065;28;19959;-44
2023/09/05 19:40:10;;;;;;;;;;;;;;;;;;5026875;28;19987;-43
2023/09/05 19:42:36;;;;;;;;;;;;;;;;;;5008812;28;19921;-42
2023/09/05 19:45:03;;;;;;;;;;;;;;;;;;4999560;28;19996;-43
2023/09/05 19:47:29;;;;;;;;;;;;;;;;;;5010376;28;19913;-43
2023/09/05 19:49:55;;;;;;;;;;;;;;;;;;5014610;28;19921;-43
2023/09/05 19:52:24;;;;;;;;;;;;;;;;;;5003889;28;19913;-43
2023/09/05 19:54:51;;;;;;;;;;;;;;;;;;4991726;28;20593;-42
2023/09/05 19:57:17;;;;;;;;;;;;;;;;;;5006869;28;19913;-43
2023/09/05 19:59:43;;;;;;;;;;;;;;;;;;5012726;28;19928;-44
2023/09/05 20:02:10;;;;;;;;;;;;;;;;;;5003873;28;19920;-44
2023/09/05 20:04:36;;;;;;;;;;;;;;;;;;5006116;28;20394;-43
2023/09/05 20:07:02;;;;;;;;;;;;;;;;;;5005577;28;20016;-43
2023/09/05 20:09:28;;;;;;;;;;;;;;;;;;5007683;28;19913;-42
2023/09/05 20:11:54;;;;;;;;;;;;;;;;;;5009421;28;19913;-42
2023/09/05 20:14:20;;;;;;;;;;;;;;;;;;4989378;28;19913;-43
2023/09/05 20:16:46;;;;;;;;;;;;;;;;;;5006104;28;19913;-42
2023/09/05 20:19:12;;;;;;;;;;;;;;;;;;5004207;28;20016;-44
2023/09/05 20:21:40;;;;;;;;;;;;;;;;;;5005827;28;20364;-44
2023/09/05 20:24:05;;;;;;;;;;;;;;;;;;5006854;28;19948;-43
2023/09/05 20:26:31;;;;;;;;;;;;;;;;;;5006296;28;19971;-42
2023/09/05 20:28:57;;;;;;;;;;;;;;;;;;5005057;28;20327;-42
2023/09/05 20:31:24;;;;;;;;;;;;;;;;;;5006682;28;20008;-43
2023/09/05 20:33:50;;;;;;;;;;;;;;;;;;5003844;28;20426;-43
2023/09/05 20:36:16;;;;;;;;;;;;;;;;;;5005943;28;19914;-43
2023/09/05 20:38:42;;;;;;;;;;;;;;;;;;5003859;28;19913;-43
2023/09/05 20:41:08;;;;;;;;;;;;;;;;;;5003160;28;19934;-43
2023/09/05 20:43:36;;;;;;;;;;;;;;;;;;5003830;28;19914;-42
2023/09/05 20:46:02;;;;;;;;;;;;;;;;;;5006939;28;19956;-44
2023/09/05 20:48:28;;;;;;;;;;;;;;;;;;5007779;28;19909;-43
2023/09/05 20:50:56;;;;;;;;;;;;;;;;;;5003780;28;19979;-42
2023/09/05 20:53:21;;;;;;;;;;;;;;;;;;5006299;28;19956;-43
2023/09/05 20:55:47;;;;;;;;;;;;;;;;;;5004063;28;19956;-42
2023/09/05 20:58:13;;;;;;;;;;;;;;;;;;5005396;28;19917;-44
2023/09/05 21:00:39;;;;;;;;;;;;;;;;;;5005787;28;19921;-43
2023/09/05 21:03:05;;;;;;;;;;;;;;;;;;5001327;28;19920;-44
2023/09/05 21:05:31;;;;;;;;;;;;;;;;;;5007397;28;20050;-43
2023/09/05 21:07:57;;;;;;;;;;;;;;;;;;5006520;28;19909;-43
2023/09/05 21:10:23;;;;;;;;;;;;;;;;;;5005799;28;19921;-43
2023/09/05 21:12:48;;;;;;;;;;;;;;;;;;5006879;28;19909;-43
2023/09/05 21:15:15;;;;;;;;;;;;;;;;;;5006176;28;19914;-44
2023/09/05 21:17:43;;;;;;;;;;;;;;;;;;5005314;28;19913;-43
2023/09/05 21:20:11;;;;;;;;;;;;;;;;;;5006693;28;19917;-42
2023/09/05 21:22:37;;;;;;;;;;;;;;;;;;5007054;28;20458;-46
2023/09/05 21:25:02;;;;;;;;;;;;;;;;;;5006616;28;19913;-42
2023/09/05 21:27:29;;;;;;;;;;;;;;;;;;5006655;28;19913;-42
2023/09/05 21:29:55;;;;;;;;;;;;;;;;;;5007602;28;19949;-42
2023/09/05 21:32:21;;;;;;;;;;;;;;;;;;5007254;28;19955;-43
2023/09/05 21:34:47;;;;;;;;;;;;;;;;;;5007258;28;20351;-43
2023/09/05 21:37:13;;;;;;;;;;;;;;;;;;4993032;28;19960;-42
2023/09/05 21:39:39;;;;;;;;;;;;;;;;;;5007453;28;19910;-44
2023/09/05 21:42:05;;;;;;;;;;;;;;;;;;5005857;28;19972;-43
2023/09/05 21:44:31;;;;;;;;;;;;;;;;;;5007322;28;19935;-42
2023/09/05 21:46:57;;;;;;;;;;;;;;;;;;5006227;28;20476;-42
2023/09/05 21:49:22;;;;;;;;;;;;;;;;;;5007490;28;19921;-43
2023/09/05 21:51:48;;;;;;;;;;;;;;;;;;5006645;28;20454;-42
2023/09/05 21:54:15;;;;;;;;;;;;;;;;;;5006692;28;19920;-42
2023/09/05 21:56:41;;;;;;;;;;;;;;;;;;5006601;28;19910;-42